createdAt,value
2024-03-14T00:00:50.579Z,8.56
2024-03-14T00:02:22.211Z,8.57
2024-03-14T00:03:57.000Z,8.54
2024-03-14T00:05:28.869Z,8.44
2024-03-14T00:07:00.473Z,8.47
2024-03-14T00:08:32.043Z,8.45
2024-03-14T00:10:05.998Z,8.51
2024-03-14T00:11:37.865Z,8.60
2024-03-14T00:13:09.492Z,8.63
2024-03-14T00:14:45.842Z,8.67
2024-03-14T00:16:18.037Z,8.66
2024-03-14T00:17:49.919Z,8.67
2024-03-14T00:19:21.553Z,8.59
2024-03-14T00:20:54.084Z,8.58
2024-03-14T00:22:26.468Z,8.57
2024-03-14T00:23:58.098Z,8.55
2024-03-14T00:25:29.797Z,8.57
2024-03-14T00:27:02.175Z,8.64
2024-03-14T00:28:34.794Z,8.60
2024-03-14T00:30:12.241Z,8.60
2024-03-14T00:31:44.491Z,8.56
2024-03-14T00:33:16.230Z,8.40
2024-03-14T00:34:48.403Z,8.23
2024-03-14T00:36:20.116Z,8.28
2024-03-14T00:37:52.630Z,8.29
2024-03-14T00:39:24.341Z,8.40
2024-03-14T00:40:55.926Z,8.44
2024-03-14T00:42:27.978Z,8.32
2024-03-14T00:44:00.269Z,8.24
2024-03-14T00:45:33.171Z,8.18
2024-03-14T00:47:06.305Z,8.31
2024-03-14T00:48:38.979Z,8.31
2024-03-14T00:50:11.542Z,8.31
2024-03-14T00:51:45.725Z,8.27
2024-03-14T00:53:17.528Z,8.19
2024-03-14T00:54:49.115Z,8.26
2024-03-14T00:56:22.014Z,8.17
2024-03-14T00:57:53.711Z,8.12
2024-03-14T00:59:27.914Z,8.26
2024-03-14T01:01:00.716Z,8.31
2024-03-14T01:02:32.428Z,8.34
2024-03-14T01:04:05.463Z,8.35
2024-03-14T01:05:38.881Z,8.21
2024-03-14T01:07:10.523Z,8.30
2024-03-14T01:08:42.116Z,8.33
2024-03-14T01:10:14.747Z,8.26
2024-03-14T01:11:46.425Z,8.28
2024-03-14T01:13:18.057Z,8.13
2024-03-14T01:14:49.771Z,8.16
2024-03-14T01:16:21.475Z,8.07
2024-03-14T01:17:53.160Z,8.22
2024-03-14T01:19:26.281Z,8.27
2024-03-14T01:20:58.099Z,8.34
2024-03-14T01:22:30.347Z,8.36
2024-03-14T01:24:01.953Z,8.35
2024-03-14T01:25:33.621Z,8.16
2024-03-14T01:27:05.612Z,8.25
2024-03-14T01:28:37.282Z,8.24
2024-03-14T01:30:13.632Z,8.31
2024-03-14T01:31:47.155Z,8.24
2024-03-14T01:33:18.843Z,8.18
2024-03-14T01:34:50.632Z,7.82
2024-03-14T01:36:22.384Z,7.74
2024-03-14T01:37:54.107Z,7.57
2024-03-14T01:39:25.807Z,7.58
2024-03-14T01:40:57.479Z,7.48
2024-03-14T01:42:29.620Z,7.55
2024-03-14T01:44:01.525Z,7.54
2024-03-14T01:45:33.577Z,7.30
2024-03-14T01:47:06.893Z,7.16
2024-03-14T01:48:38.783Z,7.09
2024-03-14T01:50:12.283Z,7.24
2024-03-14T01:51:45.295Z,7.17
2024-03-14T01:53:16.905Z,7.40
2024-03-14T01:54:50.154Z,7.03
2024-03-14T01:56:25.890Z,7.12
2024-03-14T01:57:59.649Z,7.11
2024-03-14T01:59:31.539Z,7.06
2024-03-14T02:01:04.779Z,7.22
2024-03-14T02:02:36.646Z,7.38
2024-03-14T02:04:19.118Z,7.45
2024-03-14T02:05:58.242Z,7.31
2024-03-14T02:07:36.778Z,7.38
2024-03-14T02:09:09.314Z,7.47
2024-03-14T02:12:17.652Z,7.50
2024-03-14T02:13:49.988Z,7.42
2024-03-14T02:15:21.793Z,7.32
2024-03-14T02:16:53.521Z,7.34
2024-03-14T02:18:25.215Z,7.31
2024-03-14T02:19:57.265Z,7.30
2024-03-14T02:21:29.080Z,7.38
2024-03-14T02:23:00.857Z,7.17
2024-03-14T02:24:32.488Z,7.25
2024-03-14T02:26:04.237Z,7.29
2024-03-14T02:27:36.431Z,7.35
2024-03-14T02:29:10.920Z,7.21
2024-03-14T02:30:43.117Z,7.16
2024-03-14T02:32:14.872Z,7.12
2024-03-14T02:33:46.564Z,7.18
2024-03-14T02:35:18.243Z,7.23
2024-03-14T02:36:49.873Z,7.20
2024-03-14T02:38:21.898Z,7.04
2024-03-14T02:39:54.493Z,6.85
2024-03-14T02:41:27.060Z,7.02
2024-03-14T02:42:58.712Z,6.85
2024-03-14T02:44:30.346Z,6.77
2024-03-14T02:46:01.962Z,6.82
2024-03-14T02:47:33.776Z,6.82
2024-03-14T02:49:06.229Z,7.02
2024-03-14T02:50:37.851Z,6.85
2024-03-14T02:52:09.521Z,6.94
2024-03-14T02:53:41.125Z,7.06
2024-03-14T02:55:14.081Z,7.03
2024-03-14T02:56:48.601Z,7.12
2024-03-14T02:58:20.424Z,7.07
2024-03-14T02:59:53.581Z,7.12
2024-03-14T03:01:25.244Z,7.14
2024-03-14T03:02:56.925Z,7.27
2024-03-14T03:04:31.725Z,7.21
2024-03-14T03:06:06.504Z,7.35
2024-03-14T03:07:38.389Z,7.31
2024-03-14T03:09:11.202Z,7.12
2024-03-14T03:10:43.178Z,7.20
2024-03-14T03:12:14.965Z,7.10
2024-03-14T03:13:46.660Z,7.07
2024-03-14T03:15:18.593Z,7.18
2024-03-14T03:16:50.548Z,7.28
2024-03-14T03:18:22.506Z,7.26
2024-03-14T03:19:54.634Z,7.31
2024-03-14T03:21:26.671Z,7.36
2024-03-14T03:23:07.520Z,7.32
2024-03-14T03:24:39.218Z,7.39
2024-03-14T03:26:10.848Z,7.41
2024-03-14T03:27:43.750Z,7.28
2024-03-14T03:29:15.457Z,7.37
2024-03-14T03:30:47.082Z,7.40
2024-03-14T03:32:21.043Z,7.43
2024-03-14T03:33:52.797Z,7.48
2024-03-14T03:35:26.683Z,7.49
2024-03-14T03:36:58.674Z,7.52
2024-03-14T03:38:30.296Z,7.45
2024-03-14T03:40:02.156Z,7.47
2024-03-14T03:41:33.758Z,7.42
2024-03-14T03:43:05.581Z,7.39
2024-03-14T03:44:37.191Z,7.40
2024-03-14T03:46:08.827Z,7.37
2024-03-14T03:47:43.640Z,7.33
2024-03-14T03:49:16.207Z,7.35
2024-03-14T03:50:50.068Z,7.35
2024-03-14T03:52:21.726Z,7.29
2024-03-14T03:53:53.599Z,7.24
2024-03-14T03:55:26.342Z,7.20
2024-03-14T03:56:59.343Z,7.15
2024-03-14T03:58:33.764Z,7.11
2024-03-14T04:00:25.931Z,7.03
2024-03-14T04:01:57.580Z,6.96
2024-03-14T04:03:29.605Z,6.96
2024-03-14T04:05:01.329Z,6.87
2024-03-14T04:06:34.473Z,6.88
2024-03-14T04:08:07.023Z,6.84
2024-03-14T04:09:38.718Z,6.84
2024-03-14T04:11:12.789Z,6.80
2024-03-14T04:12:45.829Z,6.81
2024-03-14T04:14:17.457Z,6.80
2024-03-14T04:15:49.160Z,6.79
2024-03-14T04:17:21.083Z,6.81
2024-03-14T04:18:52.717Z,6.79
2024-03-14T04:20:27.618Z,6.78
2024-03-14T04:22:00.065Z,6.79
2024-03-14T04:23:31.691Z,6.79
2024-03-14T04:25:11.689Z,6.80
2024-03-14T04:26:44.803Z,6.88
2024-03-14T04:28:19.651Z,6.77
2024-03-14T04:29:51.665Z,6.88
2024-03-14T04:31:23.344Z,6.90
2024-03-14T04:32:55.257Z,6.92
2024-03-14T04:34:26.940Z,6.91
2024-03-14T04:35:58.565Z,6.82
2024-03-14T04:37:30.460Z,6.75
2024-03-14T04:39:02.723Z,6.78
2024-03-14T04:40:34.379Z,6.72
2024-03-14T04:42:06.809Z,6.53
2024-03-14T04:43:39.340Z,6.61
2024-03-14T04:45:14.218Z,6.61
2024-03-14T04:46:46.273Z,6.71
2024-03-14T04:48:18.050Z,6.73
2024-03-14T04:49:49.769Z,6.69
2024-03-14T04:51:21.577Z,6.69
2024-03-14T04:52:53.332Z,6.70
2024-03-14T04:54:25.481Z,6.74
2024-03-14T04:55:57.125Z,6.74
2024-03-14T04:57:28.865Z,6.74
2024-03-14T04:59:02.377Z,6.71
2024-03-14T05:00:34.237Z,6.63
2024-03-14T05:02:06.133Z,6.69
2024-03-14T05:03:38.936Z,6.71
2024-03-14T05:05:11.347Z,6.69
2024-03-14T05:06:46.502Z,6.68
2024-03-14T05:08:18.080Z,6.64
2024-03-14T05:09:50.316Z,6.61
2024-03-14T05:11:25.140Z,6.57
2024-03-14T05:12:58.327Z,6.56
2024-03-14T05:14:29.951Z,6.49
2024-03-14T05:16:01.711Z,6.51
2024-03-14T05:17:33.410Z,6.49
2024-03-14T05:19:05.818Z,6.42
2024-03-14T05:20:37.767Z,6.50
2024-03-14T05:22:09.471Z,6.49
2024-03-14T05:23:41.189Z,6.36
2024-03-14T05:25:13.918Z,6.44
2024-03-14T05:26:46.248Z,6.43
2024-03-14T05:28:17.862Z,6.41
2024-03-14T05:29:49.573Z,6.43
2024-03-14T05:31:21.228Z,6.42
2024-03-14T05:32:53.067Z,6.47
2024-03-14T05:34:24.920Z,6.48
2024-03-14T05:35:56.575Z,6.47
2024-03-14T05:37:28.506Z,6.47
2024-03-14T05:39:00.179Z,6.43
2024-03-14T05:40:32.080Z,6.43
2024-03-14T05:42:04.913Z,6.35
2024-03-14T05:43:37.199Z,6.29
2024-03-14T05:45:10.287Z,6.32
2024-03-14T05:46:42.348Z,6.30
2024-03-14T05:48:14.124Z,5.99
2024-03-14T05:49:45.866Z,6.16
2024-03-14T05:51:19.310Z,6.22
2024-03-14T05:52:53.189Z,6.19
2024-03-14T05:54:25.170Z,6.20
2024-03-14T05:55:56.878Z,6.24
2024-03-14T05:57:28.675Z,6.09
2024-03-14T05:59:00.686Z,6.17
2024-03-14T06:00:33.469Z,6.04
2024-03-14T06:02:05.536Z,6.18
2024-03-14T06:03:37.323Z,6.12
2024-03-14T06:05:09.205Z,6.13
2024-03-14T06:06:41.025Z,6.21
2024-03-14T06:08:12.755Z,6.16
2024-03-14T06:09:44.733Z,6.13
2024-03-14T06:11:16.390Z,6.23
2024-03-14T06:12:48.016Z,6.17
2024-03-14T06:14:20.125Z,6.17
2024-03-14T06:15:51.900Z,6.12
2024-03-14T06:17:23.584Z,6.14
2024-03-14T06:18:55.925Z,6.15
2024-03-14T06:20:28.243Z,6.16
2024-03-14T06:22:00.003Z,6.19
2024-03-14T06:23:31.665Z,6.24
2024-03-14T06:25:03.601Z,6.19
2024-03-14T06:26:38.283Z,6.09
2024-03-14T06:28:09.860Z,6.08
2024-03-14T06:29:44.939Z,6.01
2024-03-14T06:31:16.795Z,6.00
2024-03-14T06:32:48.772Z,5.93
2024-03-14T06:34:20.748Z,5.97
2024-03-14T06:35:52.402Z,6.07
2024-03-14T06:37:26.832Z,6.14
2024-03-14T06:38:58.500Z,6.22
2024-03-14T06:40:33.176Z,6.32
2024-03-14T06:42:05.588Z,6.29
2024-03-14T06:43:37.214Z,6.24
2024-03-14T06:45:12.156Z,6.26
2024-03-14T06:46:44.330Z,6.28
2024-03-14T06:48:16.817Z,6.34
2024-03-14T06:49:48.456Z,6.23
2024-03-14T06:51:20.535Z,6.43
2024-03-14T06:52:52.132Z,6.34
2024-03-14T06:54:23.822Z,6.39
2024-03-14T06:55:56.994Z,6.39
2024-03-14T06:57:28.712Z,6.56
2024-03-14T06:59:00.338Z,6.68
2024-03-14T07:00:32.073Z,6.48
2024-03-14T07:02:03.748Z,6.62
2024-03-14T07:03:35.705Z,6.72
2024-03-14T07:05:11.255Z,6.71
2024-03-14T07:06:43.433Z,6.89
2024-03-14T07:08:15.432Z,6.93
2024-03-14T07:09:47.429Z,6.89
2024-03-14T07:11:19.122Z,7.01
2024-03-14T07:12:51.021Z,6.70
2024-03-14T07:14:24.195Z,6.76
2024-03-14T07:15:56.273Z,6.78
2024-03-14T07:17:28.472Z,6.77
2024-03-14T07:19:00.356Z,6.55
2024-03-14T07:20:37.086Z,6.81
2024-03-14T07:22:10.823Z,6.82
2024-03-14T07:23:42.807Z,6.91
2024-03-14T07:25:14.628Z,6.86
2024-03-14T07:26:47.510Z,7.06
2024-03-14T07:28:20.231Z,6.98
2024-03-14T07:29:52.779Z,7.01
2024-03-14T07:31:24.449Z,7.07
2024-03-14T07:32:56.173Z,7.19
2024-03-14T07:34:27.891Z,7.14
2024-03-14T07:35:59.927Z,7.16
2024-03-14T07:37:31.621Z,6.88
2024-03-14T07:39:03.507Z,6.87
2024-03-14T07:40:35.258Z,7.05
2024-03-14T07:42:07.585Z,7.22
2024-03-14T07:43:42.561Z,7.23
2024-03-14T07:45:20.691Z,7.25
2024-03-14T07:46:52.746Z,7.33
2024-03-14T07:48:24.495Z,7.39
2024-03-14T07:49:56.233Z,7.47
2024-03-14T07:51:27.946Z,7.58
2024-03-14T07:53:01.042Z,7.59
2024-03-14T07:54:33.274Z,7.66
2024-03-14T07:56:10.486Z,7.66
2024-03-14T07:57:42.381Z,7.67
2024-03-14T07:59:14.123Z,7.74
2024-03-14T08:00:47.387Z,7.86
2024-03-14T08:02:22.195Z,7.90
2024-03-14T08:03:54.000Z,7.90
2024-03-14T08:05:27.081Z,7.98
2024-03-14T08:07:00.650Z,8.08
2024-03-14T08:08:34.090Z,8.23
2024-03-14T08:10:09.658Z,8.31
2024-03-14T08:11:42.412Z,8.23
2024-03-14T08:13:24.823Z,8.31
2024-03-14T08:14:59.892Z,8.16
2024-03-14T08:16:32.519Z,8.17
2024-03-14T08:18:06.066Z,8.41
2024-03-14T08:19:38.389Z,8.56
2024-03-14T08:21:14.093Z,8.61
2024-03-14T08:22:46.016Z,8.71
2024-03-14T08:24:20.254Z,8.72
2024-03-14T08:25:51.941Z,8.79
2024-03-14T08:27:26.023Z,8.91
2024-03-14T08:28:57.644Z,9.05
2024-03-14T08:30:29.525Z,9.37
2024-03-14T08:32:01.203Z,9.61
2024-03-14T08:33:33.977Z,9.39
2024-03-14T08:35:06.683Z,9.60
2024-03-14T08:36:44.341Z,10.04
2024-03-14T08:38:16.248Z,10.49
2024-03-14T08:39:47.936Z,10.62
2024-03-14T08:41:19.609Z,10.83
2024-03-14T08:42:54.043Z,11.16
2024-03-14T08:44:27.594Z,11.27
2024-03-14T08:45:59.239Z,11.52
2024-03-14T08:47:31.916Z,11.40
2024-03-14T08:49:03.789Z,11.60
2024-03-14T08:50:36.504Z,11.83
2024-03-14T08:52:08.368Z,11.91
2024-03-14T08:53:58.784Z,12.06
2024-03-14T08:55:38.209Z,12.43
2024-03-14T08:57:10.582Z,12.49
2024-03-14T08:58:42.282Z,13.11
2024-03-14T09:00:19.033Z,13.24
2024-03-14T09:01:51.566Z,13.66
2024-03-14T09:03:23.807Z,13.80
2024-03-14T09:04:58.171Z,13.39
2024-03-14T09:06:32.243Z,13.84
2024-03-14T09:08:04.213Z,13.55
2024-03-14T09:09:36.033Z,13.51
2024-03-14T09:11:08.366Z,13.68
2024-03-14T09:12:40.121Z,13.93
2024-03-14T09:14:11.916Z,13.63
2024-03-14T09:15:44.121Z,13.36
2024-03-14T09:17:16.223Z,13.36
2024-03-14T09:18:47.820Z,13.74
2024-03-14T09:20:21.949Z,13.82
2024-03-14T09:21:53.658Z,13.61
2024-03-14T09:23:30.500Z,13.52
2024-03-14T09:25:02.854Z,13.64
2024-03-14T09:26:35.640Z,13.54
2024-03-14T09:28:10.145Z,13.98
2024-03-14T09:29:41.761Z,13.90
2024-03-14T09:31:13.421Z,13.69
2024-03-14T09:32:45.194Z,13.29
2024-03-14T09:34:18.913Z,13.46
2024-03-14T09:35:50.519Z,13.46
2024-03-14T09:37:26.360Z,14.23
2024-03-14T09:38:58.127Z,14.26
2024-03-14T09:40:31.038Z,14.26
2024-03-14T09:42:02.751Z,14.73
2024-03-14T09:43:34.445Z,14.61
2024-03-14T09:45:14.040Z,15.31
2024-03-14T09:46:55.778Z,16.19
2024-03-14T09:48:29.555Z,15.79
2024-03-14T09:50:07.991Z,15.36
2024-03-14T09:51:39.907Z,15.80
2024-03-14T09:53:16.076Z,15.82
2024-03-14T09:54:50.904Z,15.71
2024-03-14T09:56:22.740Z,15.86
2024-03-14T09:57:57.006Z,16.25
2024-03-14T09:59:28.881Z,16.36
2024-03-14T10:01:05.247Z,16.66
2024-03-14T10:02:37.087Z,16.03
2024-03-14T10:04:14.108Z,15.78
2024-03-14T10:05:46.038Z,15.57
2024-03-14T10:07:17.707Z,15.07
2024-03-14T10:08:50.102Z,15.06
2024-03-14T10:10:23.208Z,14.56
2024-03-14T10:12:02.769Z,14.95
2024-03-14T10:13:34.777Z,15.44
2024-03-14T10:15:17.692Z,15.27
2024-03-14T10:16:52.464Z,15.21
2024-03-14T10:18:28.272Z,15.35
2024-03-14T10:20:00.739Z,15.74
2024-03-14T10:21:32.730Z,16.14
2024-03-14T10:23:04.517Z,16.12
2024-03-14T10:24:36.184Z,16.33
2024-03-14T10:26:09.140Z,15.76
2024-03-14T10:27:53.656Z,16.02
2024-03-14T10:29:37.879Z,15.76
2024-03-14T10:31:09.702Z,16.26
2024-03-14T10:32:41.750Z,16.75
2024-03-14T10:34:15.537Z,16.83
2024-03-14T10:35:47.988Z,17.07
2024-03-14T10:37:23.585Z,17.74
2024-03-14T10:38:58.343Z,18.15
2024-03-14T10:40:30.634Z,17.50
2024-03-14T10:42:03.491Z,17.62
2024-03-14T10:43:42.524Z,17.70
2024-03-14T10:45:14.905Z,18.45
2024-03-14T10:46:51.401Z,18.96
2024-03-14T10:48:24.469Z,19.62
2024-03-14T10:49:57.602Z,18.56
2024-03-14T10:51:30.552Z,19.67
2024-03-14T10:53:03.146Z,19.71
2024-03-14T10:54:35.514Z,19.50
2024-03-14T10:56:17.008Z,19.55
2024-03-14T10:57:52.957Z,18.91
2024-03-14T10:59:27.117Z,18.98
2024-03-14T11:01:00.865Z,18.81
2024-03-14T11:02:32.863Z,18.10
2024-03-14T11:04:11.383Z,18.58
2024-03-14T11:05:57.398Z,18.95
2024-03-14T11:07:29.682Z,19.57
2024-03-14T11:09:04.875Z,20.37
2024-03-14T11:10:37.791Z,21.14
2024-03-14T11:12:15.971Z,20.03
2024-03-14T11:13:51.285Z,21.54
2024-03-14T11:15:25.558Z,22.15
2024-03-14T11:17:01.606Z,22.88
2024-03-14T11:18:39.518Z,23.12
2024-03-14T11:20:19.433Z,21.98
2024-03-14T11:21:52.962Z,22.67
2024-03-14T11:23:29.679Z,23.24
2024-03-14T11:25:02.359Z,24.11
2024-03-14T11:26:36.180Z,23.47
2024-03-14T11:28:08.941Z,23.20
2024-03-14T11:29:42.348Z,22.67
2024-03-14T11:31:14.634Z,21.66
2024-03-14T11:32:59.499Z,23.43
2024-03-14T11:34:32.767Z,22.78
2024-03-14T11:36:06.243Z,23.22
2024-03-14T11:37:51.478Z,23.71
2024-03-14T11:39:26.946Z,21.37
2024-03-14T11:41:03.060Z,19.49
2024-03-14T11:42:35.807Z,18.70
2024-03-14T11:44:15.780Z,17.99
2024-03-14T11:45:50.329Z,17.62
2024-03-14T11:47:41.659Z,17.36
2024-03-14T11:49:17.794Z,17.34
2024-03-14T11:50:53.504Z,17.37
2024-03-14T11:52:25.305Z,17.45
2024-03-14T11:54:01.291Z,17.98
2024-03-14T11:55:33.933Z,17.89
2024-03-14T11:57:06.585Z,18.16
2024-03-14T11:58:42.111Z,18.12
2024-03-14T12:00:13.940Z,17.17
2024-03-14T12:01:51.072Z,17.67
2024-03-14T12:03:24.182Z,17.44
2024-03-14T12:04:57.712Z,17.26
2024-03-14T12:06:30.136Z,17.45
2024-03-14T12:08:05.245Z,17.51
2024-03-14T12:09:37.211Z,17.05
2024-03-14T12:11:10.771Z,17.61
2024-03-14T12:12:42.754Z,17.54
2024-03-14T12:14:21.435Z,17.17
2024-03-14T12:16:03.904Z,16.61
2024-03-14T12:17:36.078Z,16.46
2024-03-14T12:19:12.877Z,16.59
2024-03-14T12:20:48.207Z,16.69
2024-03-14T12:22:21.790Z,16.75
2024-03-14T12:23:56.163Z,16.97
2024-03-14T12:25:29.077Z,16.92
2024-03-14T12:27:04.437Z,16.72
2024-03-14T12:28:36.666Z,16.91
2024-03-14T12:30:11.227Z,16.96
2024-03-14T12:31:48.222Z,17.22
2024-03-14T12:33:20.071Z,17.40
2024-03-14T12:34:51.944Z,17.38
2024-03-14T12:36:24.814Z,17.22
2024-03-14T12:37:56.542Z,17.35
2024-03-14T12:39:30.052Z,17.39
2024-03-14T12:41:02.032Z,17.37
2024-03-14T12:42:33.995Z,17.10
2024-03-14T12:44:07.918Z,17.22
2024-03-14T12:45:39.787Z,17.21
2024-03-14T12:47:11.705Z,16.97
2024-03-14T12:48:43.636Z,17.24
2024-03-14T12:50:22.419Z,17.18
2024-03-14T12:51:58.227Z,17.17
2024-03-14T12:53:32.542Z,16.98
2024-03-14T12:55:14.954Z,17.19
2024-03-14T12:56:47.124Z,17.36
2024-03-14T12:58:23.594Z,17.13
2024-03-14T12:59:57.019Z,17.14
2024-03-14T13:01:33.013Z,17.26
2024-03-14T13:03:04.969Z,17.14
2024-03-14T13:04:40.187Z,17.16
2024-03-14T13:06:23.028Z,17.29
2024-03-14T13:08:08.516Z,17.25
2024-03-14T13:09:40.360Z,17.31
2024-03-14T13:11:19.915Z,16.88
2024-03-14T13:12:58.866Z,16.88
2024-03-14T13:14:30.549Z,17.10
2024-03-14T13:16:16.431Z,17.12
2024-03-14T13:17:55.366Z,17.17
2024-03-14T13:19:27.370Z,17.17
2024-03-14T13:20:59.305Z,17.20
2024-03-14T13:22:31.540Z,17.22
2024-03-14T13:24:05.119Z,17.05
2024-03-14T13:25:36.971Z,17.17
2024-03-14T13:27:12.268Z,17.25
2024-03-14T13:28:44.285Z,17.22
2024-03-14T13:30:16.065Z,17.30
2024-03-14T13:31:47.762Z,17.33
2024-03-14T13:33:21.359Z,17.42
2024-03-14T13:34:53.358Z,17.46
2024-03-14T13:36:26.389Z,17.50
2024-03-14T13:37:59.016Z,17.50
2024-03-14T13:39:37.847Z,17.54
2024-03-14T13:41:09.908Z,17.45
2024-03-14T13:42:42.633Z,17.47
2024-03-14T13:44:14.376Z,17.65
2024-03-14T13:45:46.474Z,17.72
2024-03-14T13:47:24.047Z,17.77
2024-03-14T13:49:10.348Z,17.88
2024-03-14T13:50:42.360Z,18.55
2024-03-14T13:52:15.317Z,20.93
2024-03-14T13:53:51.933Z,20.91
2024-03-14T13:55:29.914Z,21.11
2024-03-14T13:57:03.132Z,20.19
2024-03-14T13:58:39.705Z,19.20
2024-03-14T14:00:13.164Z,18.51
2024-03-14T14:01:48.690Z,18.23
2024-03-14T14:03:23.170Z,18.06
2024-03-14T14:04:55.538Z,17.67
2024-03-14T14:06:27.340Z,17.69
2024-03-14T14:08:01.747Z,17.66
2024-03-14T14:09:34.651Z,17.58
2024-03-14T14:11:08.430Z,17.53
2024-03-14T14:12:40.316Z,17.66
2024-03-14T14:14:15.393Z,17.35
2024-03-14T14:15:48.990Z,17.46
2024-03-14T14:17:21.008Z,17.35
2024-03-14T14:18:52.730Z,17.33
2024-03-14T14:20:25.014Z,17.34
2024-03-14T14:21:58.073Z,17.30
2024-03-14T14:23:30.181Z,17.32
2024-03-14T14:25:01.858Z,17.35
2024-03-14T14:26:33.850Z,17.35
2024-03-14T14:28:05.886Z,17.49
2024-03-14T14:29:39.215Z,17.58
2024-03-14T14:31:13.404Z,17.65
2024-03-14T14:32:47.950Z,17.70
2024-03-14T14:34:19.644Z,17.69
2024-03-14T14:35:51.333Z,17.62
2024-03-14T14:37:22.976Z,17.41
2024-03-14T14:39:00.865Z,17.62
2024-03-14T14:40:32.920Z,17.80
2024-03-14T14:42:04.953Z,17.74
2024-03-14T14:43:36.656Z,17.85
2024-03-14T14:45:08.851Z,17.89
2024-03-14T14:46:41.858Z,17.85
2024-03-14T14:48:13.699Z,17.87
2024-03-14T14:49:45.440Z,17.81
2024-03-14T14:51:18.052Z,17.85
2024-03-14T14:52:50.002Z,17.71
2024-03-14T14:54:23.203Z,17.73
2024-03-14T14:55:56.211Z,17.75
2024-03-14T14:57:27.950Z,17.71
2024-03-14T14:58:59.711Z,17.71
2024-03-14T15:00:32.731Z,17.73
2024-03-14T15:02:06.262Z,17.71
2024-03-14T15:03:38.116Z,17.65
2024-03-14T15:05:11.401Z,17.56
2024-03-14T15:06:43.293Z,17.60
2024-03-14T15:08:15.173Z,17.54
2024-03-14T15:09:47.158Z,17.61
2024-03-14T15:11:20.651Z,17.57
2024-03-14T15:12:57.785Z,17.55
2024-03-14T15:14:32.707Z,17.56
2024-03-14T15:16:08.509Z,17.59
2024-03-14T15:17:41.301Z,17.45
2024-03-14T15:19:13.244Z,17.44
2024-03-14T15:20:48.823Z,17.41
2024-03-14T15:22:20.938Z,17.25
2024-03-14T15:23:52.637Z,17.24
2024-03-14T15:25:26.129Z,17.17
2024-03-14T15:26:59.204Z,17.13
2024-03-14T15:28:31.760Z,17.17
2024-03-14T15:30:03.835Z,17.09
2024-03-14T15:31:35.557Z,17.03
2024-03-14T15:33:07.370Z,16.99
2024-03-14T15:34:40.337Z,16.94
2024-03-14T15:36:16.632Z,16.81
2024-03-14T15:37:50.619Z,16.96
2024-03-14T15:39:22.321Z,17.01
2024-03-14T15:40:54.095Z,17.08
2024-03-14T15:42:25.743Z,17.10
2024-03-14T15:43:58.414Z,17.02
2024-03-14T15:45:30.128Z,16.88
2024-03-14T15:47:02.291Z,16.83
2024-03-14T15:48:34.043Z,16.82
2024-03-14T15:50:09.399Z,16.85
2024-03-14T15:51:41.248Z,16.72
2024-03-14T15:53:12.977Z,16.81
2024-03-14T15:54:44.903Z,16.71
2024-03-14T15:56:17.382Z,16.75
2024-03-14T15:57:49.308Z,16.71
2024-03-14T15:59:21.077Z,16.73
2024-03-14T16:00:53.628Z,16.64
2024-03-14T16:02:25.362Z,16.58
2024-03-14T16:03:57.238Z,16.55
2024-03-14T16:05:32.157Z,16.40
2024-03-14T16:07:04.150Z,16.56
2024-03-14T16:08:48.754Z,16.67
2024-03-14T16:10:26.874Z,16.81
2024-03-14T16:11:58.574Z,16.78
2024-03-14T16:13:30.307Z,16.86
2024-03-14T16:15:02.710Z,16.84
2024-03-14T16:16:36.125Z,16.89
2024-03-14T16:18:08.011Z,16.96
2024-03-14T16:19:39.865Z,16.93
2024-03-14T16:21:18.178Z,16.66
2024-03-14T16:22:51.090Z,16.56
2024-03-14T16:24:23.929Z,16.68
2024-03-14T16:25:56.328Z,16.75
2024-03-14T16:27:28.195Z,16.84
2024-03-14T16:28:59.942Z,16.83
2024-03-14T16:30:32.012Z,16.72
2024-03-14T16:32:05.391Z,16.69
2024-03-14T16:33:38.025Z,16.75
2024-03-14T16:35:16.934Z,16.75
2024-03-14T16:36:48.980Z,16.72
2024-03-14T16:38:20.701Z,16.64
2024-03-14T16:39:52.544Z,16.48
2024-03-14T16:41:24.897Z,16.32
2024-03-14T16:42:56.770Z,16.38
2024-03-14T16:44:30.934Z,16.47
2024-03-14T16:46:04.586Z,16.50
2024-03-14T16:47:36.334Z,16.51
2024-03-14T16:49:09.384Z,16.50
2024-03-14T16:50:41.439Z,16.38
2024-03-14T16:52:13.203Z,16.33
2024-03-14T16:53:44.827Z,16.36
2024-03-14T16:55:16.850Z,16.46
2024-03-14T16:56:49.335Z,16.37
2024-03-14T16:58:21.146Z,16.08
2024-03-14T16:59:54.658Z,16.17
2024-03-14T17:01:29.428Z,16.11
2024-03-14T17:03:03.644Z,16.03
2024-03-14T17:04:35.387Z,15.98
2024-03-14T17:06:07.241Z,15.89
2024-03-14T17:07:39.245Z,15.90
2024-03-14T17:09:14.396Z,15.85
2024-03-14T17:10:47.334Z,15.72
2024-03-14T17:12:19.049Z,15.64
2024-03-14T17:13:51.873Z,15.54
2024-03-14T17:15:23.775Z,15.49
2024-03-14T17:17:02.223Z,15.43
2024-03-14T17:18:39.870Z,15.38
2024-03-14T17:20:18.614Z,15.29
2024-03-14T17:21:51.281Z,15.21
2024-03-14T17:23:23.989Z,15.14
2024-03-14T17:24:55.917Z,15.10
2024-03-14T17:26:28.055Z,15.09
2024-03-14T17:28:00.043Z,15.00
2024-03-14T17:29:35.050Z,14.96
2024-03-14T17:31:07.021Z,14.88
2024-03-14T17:32:40.062Z,14.83
2024-03-14T17:34:12.026Z,14.77
2024-03-14T17:35:43.720Z,14.77
2024-03-14T17:37:16.381Z,14.64
2024-03-14T17:38:48.799Z,14.50
2024-03-14T17:40:20.815Z,14.50
2024-03-14T17:41:56.303Z,14.31
2024-03-14T17:43:30.111Z,14.15
2024-03-14T17:45:01.837Z,14.14
2024-03-14T17:46:33.587Z,14.17
2024-03-14T17:48:06.710Z,14.24
2024-03-14T17:49:39.272Z,14.26
2024-03-14T17:51:11.096Z,14.23
2024-03-14T17:52:44.375Z,14.21
2024-03-14T17:54:18.820Z,14.23
2024-03-14T17:55:51.851Z,14.20
2024-03-14T17:57:23.667Z,13.89
2024-03-14T17:58:56.409Z,13.80
2024-03-14T18:00:31.063Z,13.85
2024-03-14T18:02:05.644Z,13.71
2024-03-14T18:03:37.327Z,13.65
2024-03-14T18:05:14.079Z,13.62
2024-03-14T18:06:47.834Z,13.63
2024-03-14T18:08:19.545Z,13.54
2024-03-14T18:09:53.180Z,13.49
2024-03-14T18:11:24.998Z,13.57
2024-03-14T18:12:56.769Z,13.53
2024-03-14T18:14:29.566Z,13.57
2024-03-14T18:16:01.382Z,13.58
2024-03-14T18:17:33.425Z,13.39
2024-03-14T18:19:05.541Z,13.41
2024-03-14T18:20:37.757Z,13.43
2024-03-14T18:22:09.466Z,13.36
2024-03-14T18:23:41.301Z,13.17
2024-03-14T18:25:20.752Z,13.24
2024-03-14T18:26:52.665Z,13.24
2024-03-14T18:28:24.739Z,13.08
2024-03-14T18:29:56.408Z,13.17
2024-03-14T18:31:32.215Z,13.21
2024-03-14T18:33:04.103Z,13.25
2024-03-14T18:34:35.921Z,13.10
2024-03-14T18:36:09.266Z,12.85
2024-03-14T18:37:40.942Z,13.05
2024-03-14T18:39:15.610Z,13.08
2024-03-14T18:40:48.988Z,12.88
2024-03-14T18:42:20.848Z,12.92
2024-03-14T18:43:53.899Z,12.96
2024-03-14T18:45:25.762Z,12.94
2024-03-14T18:46:58.006Z,12.94
2024-03-14T18:48:29.874Z,12.89
2024-03-14T18:50:02.540Z,12.91
2024-03-14T18:51:34.525Z,12.94
2024-03-14T18:53:13.946Z,12.75
2024-03-14T18:54:50.412Z,12.85
2024-03-14T18:56:22.230Z,12.85
2024-03-14T18:57:54.152Z,12.82
2024-03-14T18:59:25.949Z,12.77
2024-03-14T19:00:58.332Z,12.81
2024-03-14T19:02:32.134Z,12.78
2024-03-14T19:04:07.443Z,12.74
2024-03-14T19:05:39.116Z,12.70
2024-03-14T19:07:10.962Z,12.70
2024-03-14T19:08:42.633Z,12.66
2024-03-14T19:10:15.059Z,12.60
2024-03-14T19:11:47.019Z,12.55
2024-03-14T19:13:18.790Z,12.56
2024-03-14T19:14:50.559Z,12.53
2024-03-14T19:16:22.247Z,12.45
2024-03-14T19:17:54.094Z,12.39
2024-03-14T19:19:26.237Z,12.39
2024-03-14T19:20:57.928Z,12.40
2024-03-14T19:22:29.663Z,12.33
2024-03-14T19:24:01.469Z,12.25
2024-03-14T19:25:33.133Z,12.27
2024-03-14T19:27:06.746Z,12.22
2024-03-14T19:28:41.876Z,12.26
2024-03-14T19:30:17.686Z,12.24
2024-03-14T19:31:50.793Z,12.17
2024-03-14T19:33:22.628Z,12.09
2024-03-14T19:34:55.166Z,12.04
2024-03-14T19:36:26.981Z,12.07
2024-03-14T19:37:59.080Z,12.06
2024-03-14T19:39:31.859Z,12.04
2024-03-14T19:41:04.863Z,11.95
2024-03-14T19:42:37.085Z,11.91
2024-03-14T19:44:08.865Z,11.92
2024-03-14T19:45:41.040Z,11.73
2024-03-14T19:47:12.980Z,11.77
2024-03-14T19:48:44.834Z,11.71
2024-03-14T19:50:16.589Z,11.80
2024-03-14T19:51:48.310Z,11.77
2024-03-14T19:53:20.355Z,11.79
2024-03-14T19:54:52.645Z,11.49
2024-03-14T19:56:25.623Z,11.62
2024-03-14T19:57:57.690Z,11.69
2024-03-14T19:59:29.369Z,11.40
2024-03-14T20:01:01.202Z,11.49
2024-03-14T20:02:32.910Z,11.48
2024-03-14T20:04:04.717Z,11.44
2024-03-14T20:05:36.422Z,11.51
2024-03-14T20:07:08.206Z,11.54
2024-03-14T20:08:39.902Z,11.58
2024-03-14T20:10:15.347Z,11.59
2024-03-14T20:11:47.505Z,11.49
2024-03-14T20:13:19.949Z,11.49
2024-03-14T20:14:51.594Z,11.31
2024-03-14T20:16:23.413Z,11.50
2024-03-14T20:17:56.173Z,11.43
2024-03-14T20:19:28.177Z,11.47